createdAt,value
2018-06-19T06:35:41.700Z,7.35
2018-06-19T06:38:10.848Z,6.22
2018-06-19T06:40:40.303Z,6.42
2018-06-19T06:43:08.827Z,6.10
2018-06-19T06:45:38.019Z,5.90
2018-06-19T06:48:06.550Z,6.53
2018-06-19T06:50:35.268Z,6.20
2018-06-19T06:53:04.585Z,6.70
2018-06-19T06:55:34.169Z,7.17
2018-06-19T06:58:03.902Z,6.53
2018-06-19T07:00:32.728Z,7.00
2018-06-19T07:03:02.918Z,8.18
2018-06-19T07:05:31.430Z,7.85
2018-06-19T07:08:00.827Z,7.42
2018-06-19T07:10:31.284Z,6.70
2018-06-19T07:12:59.811Z,7.75
2018-06-19T07:15:28.420Z,8.00
2018-06-19T07:17:57.595Z,7.22
2018-06-19T07:20:29.151Z,8.20
2018-06-19T07:22:57.883Z,8.55
2018-06-19T07:25:28.205Z,8.68
2018-06-19T07:27:56.775Z,9.15
2018-06-19T07:30:25.480Z,9.95
2018-06-19T07:32:54.014Z,9.48
2018-06-19T07:35:23.214Z,9.73
2018-06-19T07:37:51.923Z,10.08
2018-06-19T07:40:20.539Z,10.50
2018-06-19T07:42:49.902Z,10.80
2018-06-19T07:45:19.766Z,10.30
2018-06-19T07:47:48.378Z,11.73
2018-06-19T07:50:17.116Z,11.48
2018-06-19T07:52:47.883Z,10.98
2018-06-19T07:55:18.063Z,11.65
2018-06-19T07:57:46.609Z,11.35
2018-06-19T08:00:16.154Z,12.80
2018-06-19T08:02:45.681Z,13.45
2018-06-19T08:05:14.415Z,13.68
2018-06-19T08:07:44.562Z,14.28
2018-06-19T08:10:13.172Z,14.38
2018-06-19T08:12:41.717Z,14.75
2018-06-19T08:15:10.930Z,14.47
2018-06-19T08:17:39.458Z,15.50
2018-06-19T08:20:09.368Z,14.65
2018-06-19T08:22:38.492Z,15.85
2018-06-19T08:25:07.189Z,15.60
2018-06-19T08:27:36.512Z,15.38
2018-06-19T08:30:05.360Z,16.00
2018-06-19T08:32:34.859Z,15.90
2018-06-19T08:35:03.699Z,16.17
2018-06-19T08:37:33.732Z,15.53
2018-06-19T08:40:04.068Z,16.87
2018-06-19T08:42:32.690Z,15.95
2018-06-19T08:45:01.230Z,16.55
2018-06-19T08:47:30.414Z,17.87
2018-06-19T08:49:59.862Z,19.37
2018-06-19T08:52:29.424Z,18.90
2018-06-19T08:54:58.702Z,19.25
2018-06-19T08:57:27.289Z,17.95
2018-06-19T08:59:55.881Z,18.73
2018-06-19T09:02:24.524Z,17.73
2018-06-19T09:04:54.095Z,18.52
2018-06-19T09:07:24.824Z,18.95
2018-06-19T09:09:53.437Z,17.62
2018-06-19T09:12:22.518Z,18.17
2018-06-19T09:14:51.053Z,19.05
2018-06-19T09:17:21.352Z,19.42
2018-06-19T09:19:50.040Z,17.98
2018-06-19T09:22:18.574Z,17.77
2018-06-19T09:24:48.057Z,19.60
2018-06-19T09:27:17.500Z,20.45
2018-06-19T09:29:46.193Z,19.02
2018-06-19T09:32:14.784Z,20.17
2018-06-19T09:34:43.292Z,19.42
2018-06-19T09:37:12.196Z,20.37
2018-06-19T09:39:40.913Z,21.10
2018-06-19T09:42:10.051Z,20.43
2018-06-19T09:44:39.884Z,20.00
2018-06-19T09:47:09.447Z,20.02
2018-06-19T09:49:42.708Z,20.10
2018-06-19T09:52:12.234Z,20.62
2018-06-19T09:54:42.941Z,20.17
2018-06-19T09:57:12.278Z,20.70
2018-06-19T09:59:45.144Z,19.98
2018-06-19T10:02:14.236Z,21.30
2018-06-19T10:04:45.150Z,21.77
2018-06-19T10:07:17.921Z,20.62
2018-06-19T10:09:47.306Z,21.68
2018-06-19T10:12:17.616Z,21.75
2018-06-19T10:14:46.218Z,21.02
2018-06-19T10:17:16.199Z,22.52
2018-06-19T10:19:44.869Z,21.33
2018-06-19T10:22:17.823Z,21.27
2018-06-19T10:24:47.778Z,21.77
2018-06-19T10:27:17.197Z,21.48
2018-06-19T10:29:47.062Z,22.00
2018-06-19T10:32:15.573Z,21.93
2018-06-19T10:34:44.131Z,20.95
2018-06-19T10:37:15.424Z,21.65
2018-06-19T10:39:44.102Z,21.27
2018-06-19T10:42:12.719Z,21.23
2018-06-19T10:44:41.490Z,20.60
2018-06-19T10:47:12.391Z,20.60
2018-06-19T10:49:42.705Z,20.60
2018-06-19T10:52:12.551Z,21.20
2018-06-19T10:54:41.066Z,21.12
2018-06-19T10:57:11.142Z,21.10
2018-06-19T10:59:39.779Z,21.82
2018-06-19T11:02:08.869Z,21.05
2018-06-19T11:04:40.241Z,21.57
2018-06-19T11:07:08.489Z,21.87
2018-06-19T11:09:37.195Z,21.90
2018-06-19T11:12:05.706Z,21.42
2018-06-19T11:14:34.257Z,21.57
2018-06-19T11:17:02.862Z,21.40
2018-06-19T11:19:31.522Z,21.60
2018-06-19T11:22:00.027Z,21.75
2018-06-19T11:24:28.589Z,20.45
2018-06-19T11:26:57.265Z,20.02
2018-06-19T11:29:26.602Z,20.00
2018-06-19T11:31:55.113Z,20.70
2018-06-19T11:34:24.333Z,19.25
2018-06-19T11:36:54.853Z,20.57
2018-06-19T11:39:23.566Z,19.82
2018-06-19T11:41:52.635Z,20.02
2018-06-19T11:44:22.116Z,18.45
2018-06-19T11:46:51.618Z,19.82
2018-06-19T11:49:20.334Z,19.67
2018-06-19T11:51:48.840Z,19.27
2018-06-19T11:54:17.466Z,18.37
2018-06-19T11:56:46.100Z,19.27
2018-06-19T11:59:15.186Z,18.80
2018-06-19T12:01:44.572Z,19.00
2018-06-19T12:04:13.794Z,18.92
2018-06-19T12:06:42.388Z,16.77
2018-06-19T12:09:11.327Z,17.20
2018-06-19T12:11:40.913Z,17.15
2018-06-19T12:14:11.254Z,18.23
2018-06-19T12:16:39.847Z,18.32
2018-06-19T12:19:09.202Z,16.87
2018-06-19T12:21:37.788Z,18.23
2018-06-19T12:24:07.075Z,16.82
2018-06-19T12:26:35.613Z,16.60
2018-06-19T12:29:05.856Z,16.10
2018-06-19T12:31:35.308Z,16.90
2018-06-19T12:34:05.003Z,15.98
2018-06-19T12:36:35.086Z,14.93
2018-06-19T12:39:05.719Z,16.65
2018-06-19T12:41:44.480Z,16.70
2018-06-19T12:44:15.561Z,14.98
2018-06-19T12:46:44.193Z,16.55
2018-06-19T12:49:13.999Z,14.73
2018-06-19T12:51:55.314Z,15.75
2018-06-19T12:55:33.678Z,16.67
2018-06-19T12:58:02.897Z,17.02
2018-06-19T13:00:32.714Z,16.52
2018-06-19T13:03:12.472Z,15.95
2018-06-19T13:05:52.787Z,15.32
2018-06-19T13:08:21.986Z,14.43
2018-06-19T13:10:50.686Z,15.50
2018-06-19T13:14:30.620Z,16.57
2018-06-19T13:17:11.012Z,15.88
2018-06-19T13:19:50.801Z,15.60
2018-06-19T13:22:19.376Z,15.15
2018-06-19T13:24:47.996Z,14.35
2018-06-19T13:27:16.907Z,14.23
2018-06-19T13:30:02.147Z,15.55
2018-06-19T13:32:31.322Z,12.95
2018-06-19T13:34:59.845Z,12.85
2018-06-19T13:37:28.121Z,13.22
2018-06-19T13:41:27.241Z,13.15
2018-06-19T13:45:07.267Z,13.25
2018-06-19T13:47:36.880Z,12.53
2018-06-19T13:50:05.543Z,12.68
2018-06-19T13:52:34.127Z,13.30
2018-06-19T13:57:24.065Z,14.68
2018-06-19T13:59:52.740Z,15.13
2018-06-19T14:02:21.321Z,16.73
2018-06-19T14:04:49.954Z,15.28
2018-06-19T14:07:18.588Z,16.32
2018-06-19T14:10:05.406Z,16.25
2018-06-19T14:12:51.434Z,15.43
2018-06-19T14:15:21.199Z,16.77
2018-06-19T14:17:49.884Z,15.28
2018-06-19T14:20:18.569Z,16.62
2018-06-19T14:22:47.134Z,17.67
2018-06-19T14:25:15.979Z,16.40
2018-06-19T14:27:44.535Z,16.23
2018-06-19T14:30:13.160Z,15.78
2018-06-19T14:32:41.870Z,15.93
2018-06-19T14:35:10.809Z,15.90
2018-06-19T14:37:39.457Z,16.65
2018-06-19T14:40:09.696Z,15.48
2018-06-19T14:42:38.239Z,15.25
2018-06-19T14:45:07.596Z,14.28
2018-06-19T14:47:36.208Z,13.83
2018-06-19T14:50:05.054Z,13.83
2018-06-19T14:52:33.720Z,13.70
2018-06-19T14:55:02.294Z,14.70
2018-06-19T14:57:30.944Z,12.85
2018-06-19T14:59:59.562Z,15.40
2018-06-19T15:02:28.077Z,15.53
2018-06-19T15:04:56.673Z,16.32
2018-06-19T15:07:25.207Z,15.10
2018-06-19T15:09:53.789Z,15.50
2018-06-19T15:12:22.419Z,14.65
2018-06-19T15:14:50.983Z,17.77
2018-06-19T15:17:19.152Z,14.95
2018-06-19T15:19:47.858Z,14.30
2018-06-19T15:22:16.367Z,15.15
2018-06-19T15:24:44.873Z,15.20
2018-06-19T15:27:13.476Z,14.25
2018-06-19T15:29:42.234Z,14.53
2018-06-19T15:32:10.787Z,15.08
2018-06-19T15:34:39.373Z,14.90
2018-06-19T15:37:07.923Z,14.38
2018-06-19T15:39:36.568Z,13.60
2018-06-19T15:42:05.103Z,13.00
2018-06-19T15:44:33.720Z,13.43
2018-06-19T15:47:02.295Z,11.83
2018-06-19T15:49:30.959Z,11.93
2018-06-19T15:51:59.465Z,12.58
2018-06-19T15:54:28.313Z,10.75
2018-06-19T15:56:56.836Z,12.80
2018-06-19T15:59:25.438Z,12.82
2018-06-19T16:01:54.010Z,12.30
2018-06-19T16:04:22.608Z,12.40
2018-06-19T16:06:51.143Z,14.20
2018-06-19T16:09:20.407Z,13.08
2018-06-19T16:11:49.007Z,12.88
2018-06-19T16:14:17.617Z,13.58
2018-06-19T16:16:46.230Z,13.88
2018-06-19T16:19:14.820Z,13.13
2018-06-19T16:21:43.308Z,13.62
2018-06-19T16:24:11.944Z,14.07
2018-06-19T16:26:40.470Z,15.03
2018-06-19T16:29:09.158Z,15.40
2018-06-19T16:31:37.674Z,15.68
2018-06-19T16:34:06.222Z,15.80
2018-06-19T16:36:34.819Z,17.40
2018-06-19T16:39:04.088Z,17.95
2018-06-19T16:41:32.676Z,18.10
2018-06-19T16:44:01.217Z,17.57
2018-06-19T16:46:29.752Z,17.02
2018-06-19T16:48:58.321Z,17.45
2018-06-19T16:51:26.871Z,16.67
2018-06-19T16:53:55.557Z,17.30
2018-06-19T16:56:24.172Z,16.93
2018-06-19T16:58:52.750Z,15.90
2018-06-19T17:01:21.328Z,15.35
2018-06-19T17:03:50.278Z,16.00
2018-06-19T17:06:18.851Z,15.28
2018-06-19T17:08:47.433Z,16.23
2018-06-19T17:11:15.984Z,16.07
2018-06-19T17:13:44.550Z,16.42
2018-06-19T17:16:13.126Z,16.82
2018-06-19T17:18:41.677Z,15.50
2018-06-19T17:21:10.284Z,15.40
2018-06-19T17:23:38.818Z,16.32
2018-06-19T17:26:07.372Z,17.20
2018-06-19T17:28:35.928Z,16.35
2018-06-19T17:31:04.534Z,16.60
2018-06-19T17:33:33.066Z,16.70
2018-06-19T17:36:02.854Z,16.27
2018-06-19T17:38:31.477Z,16.45
2018-06-19T17:41:00.207Z,17.25
2018-06-19T17:43:28.709Z,16.25
2018-06-19T17:45:58.308Z,15.60
2018-06-19T17:48:27.246Z,16.10
2018-06-19T17:50:55.889Z,15.98
2018-06-19T17:53:24.489Z,15.18
2018-06-19T17:55:53.446Z,15.05
2018-06-19T17:58:21.983Z,14.68
2018-06-19T18:00:50.625Z,16.42
2018-06-19T18:03:19.141Z,16.17
2018-06-19T18:05:47.725Z,16.25
2018-06-19T18:08:16.288Z,15.38
2018-06-19T18:10:44.980Z,16.48
2018-06-19T18:13:13.496Z,16.15
2018-06-19T18:15:42.002Z,15.72
2018-06-19T18:18:10.559Z,16.40
2018-06-19T18:20:39.272Z,17.02
2018-06-19T18:23:07.859Z,16.67
2018-06-19T18:25:36.432Z,16.70
2018-06-19T18:28:04.932Z,16.50
2018-06-19T18:30:33.577Z,16.02
2018-06-19T18:33:02.154Z,17.40
2018-06-19T18:35:30.756Z,15.32
2018-06-19T18:37:59.425Z,14.85
2018-06-19T18:40:28.324Z,15.72
2018-06-19T18:42:56.938Z,16.23
2018-06-19T18:45:25.621Z,16.12
2018-06-19T18:47:54.312Z,16.07
2018-06-19T18:50:23.040Z,16.35
2018-06-19T18:52:51.636Z,15.80
2018-06-19T18:55:20.453Z,15.23
2018-06-19T18:57:49.036Z,16.07
2018-06-19T19:00:17.743Z,14.33
2018-06-19T19:02:46.422Z,14.75
2018-06-19T19:05:15.144Z,14.65
2018-06-19T19:07:43.741Z,13.88
2018-06-19T19:10:17.556Z,14.38
2018-06-19T19:12:46.294Z,13.60
2018-06-19T19:16:23.282Z,15.03
2018-06-19T19:18:57.188Z,14.07
2018-06-19T19:21:25.930Z,13.98
2018-06-19T19:23:54.555Z,13.83
2018-06-19T19:26:28.408Z,13.28
2018-06-19T19:29:02.541Z,13.68
2018-06-19T19:31:31.285Z,14.50
2018-06-19T19:33:59.843Z,14.60
2018-06-19T19:36:33.689Z,13.78
2018-06-19T19:39:07.488Z,14.53
2018-06-19T19:41:36.095Z,13.72
2018-06-19T19:44:04.808Z,13.72
2018-06-19T19:46:38.541Z,13.25
2018-06-19T19:49:07.205Z,13.70
2018-06-19T19:51:35.850Z,14.30
2018-06-19T19:54:04.451Z,14.23
2018-06-19T19:56:38.318Z,14.23
2018-06-19T19:59:07.211Z,13.90
2018-06-19T20:01:35.783Z,13.75
2018-06-19T20:04:04.438Z,14.15
2018-06-19T20:06:33.589Z,14.30
2018-06-19T20:09:02.238Z,13.95
2018-06-19T20:11:30.775Z,15.10
2018-06-19T20:13:59.778Z,14.05
2018-06-19T20:16:28.439Z,13.93
2018-06-19T20:18:57.062Z,14.83
2018-06-19T20:21:25.937Z,13.65
2018-06-19T20:23:56.195Z,14.40
2018-06-19T20:26:25.090Z,14.23
2018-06-19T20:28:54.103Z,13.38
2018-06-19T20:31:22.725Z,14.05
2018-06-19T20:33:51.256Z,14.25
2018-06-19T20:36:19.829Z,14.30
2018-06-19T20:38:48.432Z,14.35
2018-06-19T20:41:16.998Z,14.50
2018-06-19T20:43:45.663Z,14.45
2018-06-19T20:46:14.217Z,14.28
2018-06-19T20:48:42.842Z,14.63
2018-06-19T20:51:11.543Z,14.60
2018-06-19T20:53:40.162Z,13.72
2018-06-19T20:56:08.725Z,13.65
2018-06-19T20:58:37.278Z,14.33
2018-06-19T21:01:05.899Z,14.23
2018-06-19T21:03:34.485Z,13.62
2018-06-19T21:06:03.038Z,13.98
2018-06-19T21:08:40.612Z,14.20
2018-06-19T21:11:10.799Z,13.62
2018-06-19T21:13:39.382Z,13.72
2018-06-19T21:16:08.745Z,14.30
2018-06-19T21:18:37.996Z,14.18
2018-06-19T21:21:07.073Z,14.73
2018-06-19T21:23:35.375Z,15.00
2018-06-19T21:26:03.926Z,14.78
2018-06-19T21:28:32.537Z,15.55
2018-06-19T21:31:01.192Z,15.88
2018-06-19T21:33:29.724Z,15.65
2018-06-19T21:35:58.338Z,17.00
2018-06-19T21:38:26.942Z,16.87
2018-06-19T21:40:55.614Z,15.70
